Currently 47°F in Riverside (Presidential Park), California, USA
47°F
58°F / 39°F
2 mph E
0.00"
Wednesday, February 21, 2018 8:35 PM PST

Riverside (Presidential Park), California Weather Summary
Last 36 Hours

Temperature Winds Hourly Humidity Dewpoint
Time Report Norm Report Norm Max Gusts Precip. Rpt. Norm Rpt. Norm Pressure
1Wed 08:35 PM  47.1°F  57°F  2 mph E  2 mph  3 mph  0.00"  58%  62%  33°F  44°F  30.13"
Wed 08:00 PM  49.4°F  58°F  calm  2 mph  9 mph  0.00"  56%  59%  34°F  44°F  30.12"
Wed 07:00 PM  51.9°F  61°F  3 mph SW  3 mph  11 mph  0.00"  50%  53%  33°F  43°F  30.11"
Wed 06:00 PM  53.4°F  64°F  7 mph SW  4 mph  15 mph  0.00"  47%  48%  33°F  42°F  30.09"
Wed 05:00 PM  55.9°F  67°F  7 mph W  6 mph  15 mph  0.00"  43%  42%  33°F  42°F  30.07"
Wed 04:00 PM  56.9°F  69°F  9 mph SW  6 mph  15 mph  0.00"  44%  38%  34°F  41°F  30.07"
Wed 03:00 PM  56.7°F  69°F  3 mph SE  6 mph  14 mph  0.00"  43%  37%  34°F  40°F  30.07"
Wed 02:00 PM  56.2°F  69°F  6 mph SW  5 mph  12 mph  0.00"  33%  37%  26°F  40°F  30.07"
2Wed 01:19 PM  57.9°F  68°F  2 mph SW  5 mph  10 mph  ----  32%  37%  27°F  40°F  30.08"
Wed 01:00 PM  56.7°F  68°F  4 mph S  5 mph  12 mph  0.00"  32%  37%  26°F  40°F  30.08"
Wed 12:00 PM  57.7°F  67°F  2 mph SW  4 mph  7 mph  0.00"  31%  40%  26°F  41°F  30.10"
Wed 11:00 AM  54.8°F  64°F  2 mph NE  3 mph  9 mph  0.00"  32%  46%  24°F  42°F  30.12"
Wed 10:00 AM  53.8°F  61°F  3 mph NE  3 mph  6 mph  0.00"  35%  53%  25°F  43°F  30.13"
Wed 09:00 AM  51.0°F  57°F  calm  2 mph  7 mph  0.00"  42%  61%  28°F  43°F  30.13"
Wed 08:00 AM  46.7°F  51°F  5 mph E  2 mph  8 mph  0.00"  47%  72%  27°F  42°F  30.13"
Wed 07:00 AM  43.2°F  48°F  calm  1 mph  6 mph  0.00"  52%  75%  26°F  40°F  30.12"
Wed 06:00 AM  42.4°F  48°F  calm  1 mph  3 mph  0.00"  53%  75%  26°F  40°F  30.11"
Wed 05:00 AM  40.8°F  49°F  calm  2 mph  5 mph  0.00"  59%  74%  27°F  41°F  30.09"
Wed 04:00 AM  40.2°F  49°F  calm  1 mph  4 mph  0.00"  58%  74%  26°F  41°F  30.10"
3Wed 03:00 AM  39.3°F  50°F  calm  1 mph  3 mph  0.00"  59%  73%  26°F  41°F  30.09"
Wed 02:00 AM  41.0°F  51°F  calm  1 mph  none  0.00"  56%  72%  26°F  42°F  30.10"
Wed 01:00 AM  41.9°F  52°F  calm  1 mph  3 mph  0.00"  51%  71%  24°F  42°F  30.11"
Wed 12:00 AM  41.5°F  53°F  calm  1 mph  6 mph  0.00"  51%  70%  24°F  43°F  30.12"
Tue 11:00 PM  43.3°F  54°F  4 mph E  2 mph  6 mph  0.00"  47%  68%  23°F  43°F  30.13"
Tue 10:00 PM  42.9°F  55°F  4 mph SE  2 mph  5 mph  0.00"  48%  65%  24°F  43°F  30.13"
Tue 09:00 PM  45.9°F  57°F  calm  1 mph  4 mph  0.00"  43%  62%  24°F  43°F  30.13"
Tue 08:00 PM  49.2°F  59°F  2 mph W  2 mph  9 mph  0.00"  36%  57%  22°F  44°F  30.11"
Tue 07:00 PM  51.8°F  62°F  calm  3 mph  11 mph  0.00"  29%  51%  20°F  43°F  30.09"
Tue 06:00 PM  53.7°F  65°F  5 mph SW  4 mph  17 mph  0.00"  27%  46%  19°F  42°F  30.07"
Tue 05:00 PM  57.5°F  68°F  10 mph SW  6 mph  16 mph  0.00"  23%  40%  19°F  41°F  30.06"
Tue 04:00 PM  60.6°F  70°F  4 mph W  6 mph  9 mph  0.00"  14%  35%  9°F  41°F  30.04"
Tue 03:00 PM  57.8°F  70°F  3 mph W  6 mph  12 mph  0.00"  16%  35%  10°F  40°F  30.05"
Tue 02:00 PM  57.5°F  70°F  3 mph S  5 mph  10 mph  0.00"  16%  35%  10°F  40°F  30.06"
Tue 01:00 PM  57.6°F  69°F  1 mph NE  5 mph  11 mph  0.00"  18%  35%  12°F  40°F  30.07"
Tue 12:00 PM  57.4°F  68°F  1 mph SE  4 mph  9 mph  0.00"  18%  38%  12°F  41°F  30.10"
Tue 11:00 AM  53.4°F  65°F  3 mph NW  3 mph  8 mph  0.00"  24%  44%  15°F  42°F  30.13"
Tue 10:00 AM  52.2°F  62°F  2 mph NW  3 mph  9 mph  0.00"  25%  51%  16°F  43°F  30.14"
Tue 09:00 AM  49.0°F  58°F  2 mph SW  2 mph  11 mph  0.00"  34%  60%  21°F  43°F  30.14"

  1. Current weather data. No green row appears if the current weather data is also the high or low for the current day.
  2. High temperature for the current day.
  3. Low temperature for the current day.

The Riverside (Presidential Park), California weather pages are a service of WeatherCurrents.
Copyright ©Wed Feb 21 20:35:22 PST 2018  WeatherCurrents. All rights reserved. - Submit questions and comments - Privacy Policy

This page automatically refreshes every 10 minutes.